sensor_id;sensor_type;location;lat;lon;timestamp;pressure;altitude;pressure_sealevel;temperature;humidity
19676;BME280;39539;52.202;9.876;2022-09-09T00:02:23;100142.47;;;13.79;100.00
19676;BME280;39539;52.202;9.876;2022-09-09T00:07:47;100126.66;;;13.61;100.00
19676;BME280;39539;52.202;9.876;2022-09-09T00:15:24;100144.25;;;13.74;100.00
19676;BME280;39539;52.202;9.876;2022-09-09T00:20:55;100150.59;;;13.84;100.00
19676;BME280;39539;52.202;9.876;2022-09-09T00:23:30;100139.56;;;13.81;100.00
19676;BME280;39539;52.202;9.876;2022-09-09T00:31:38;100147.41;;;13.70;100.00
19676;BME280;39539;52.202;9.876;2022-09-09T00:36:40;100140.28;;;13.76;100.00
19676;BME280;39539;52.202;9.876;2022-09-09T00:39:31;100135.44;;;13.73;100.00
19676;BME280;39539;52.202;9.876;2022-09-09T00:44:50;100152.28;;;13.74;100.00
19676;BME280;39539;52.202;9.876;2022-09-09T00:50:03;100145.78;;;13.69;100.00
19676;BME280;39539;52.202;9.876;2022-09-09T00:52:40;100145.69;;;13.64;100.00
19676;BME280;39539;52.202;9.876;2022-09-09T00:58:02;100141.41;;;13.63;100.00
19676;BME280;39539;52.202;9.876;2022-09-09T01:00:44;100131.56;;;13.52;100.00
19676;BME280;39539;52.202;9.876;2022-09-09T01:17:05;100154.69;;;13.75;100.00
19676;BME280;39539;52.202;9.876;2022-09-09T01:27:35;100137.16;;;13.51;100.00
19676;BME280;39539;52.202;9.876;2022-09-09T01:30:04;100135.22;;;13.46;100.00
19676;BME280;39539;52.202;9.876;2022-09-09T01:32:49;100132.97;;;13.55;100.00
19676;BME280;39539;52.202;9.876;2022-09-09T01:38:08;100132.63;;;13.51;100.00
19676;BME280;39539;52.202;9.876;2022-09-09T01:40:34;100133.44;;;13.52;100.00
19676;BME280;39539;52.202;9.876;2022-09-09T01:43:00;100133.75;;;13.55;100.00
19676;BME280;39539;52.202;9.876;2022-09-09T01:45:25;100136.91;;;13.52;100.00
19676;BME280;39539;52.202;9.876;2022-09-09T01:47:54;100145.25;;;13.56;100.00
19676;BME280;39539;52.202;9.876;2022-09-09T01:50:21;100144.22;;;13.57;100.00
19676;BME280;39539;52.202;9.876;2022-09-09T01:52:52;100137.66;;;13.47;100.00
19676;BME280;39539;52.202;9.876;2022-09-09T01:55:38;100126.09;;;13.30;100.00
19676;BME280;39539;52.202;9.876;2022-09-09T02:01:51;100146.25;;;13.38;100.00
19676;BME280;39539;52.202;9.876;2022-09-09T02:03:56;100152.41;;;13.38;100.00
19676;BME280;39539;52.202;9.876;2022-09-09T02:06:34;100141.56;;;13.28;100.00
19676;BME280;39539;52.202;9.876;2022-09-09T02:09:03;100152.50;;;13.43;100.00
19676;BME280;39539;52.202;9.876;2022-09-09T02:11:30;100153.56;;;13.42;100.00
19676;BME280;39539;52.202;9.876;2022-09-09T02:14:27;100146.69;;;13.46;100.00
19676;BME280;39539;52.202;9.876;2022-09-09T02:17:01;100140.69;;;13.39;100.00
19676;BME280;39539;52.202;9.876;2022-09-09T02:19:32;100132.13;;;13.37;100.00
19676;BME280;39539;52.202;9.876;2022-09-09T02:22:01;100145.78;;;13.41;100.00
19676;BME280;39539;52.202;9.876;2022-09-09T02:24:29;100141.63;;;13.33;100.00
19676;BME280;39539;52.202;9.876;2022-09-09T02:26:57;100141.41;;;13.35;100.00
19676;BME280;39539;52.202;9.876;2022-09-09T02:29:33;100134.09;;;13.30;100.00
19676;BME280;39539;52.202;9.876;2022-09-09T02:32:03;100138.25;;;13.38;100.00
19676;BME280;39539;52.202;9.876;2022-09-09T02:34:31;100134.78;;;13.37;100.00
19676;BME280;39539;52.202;9.876;2022-09-09T02:37:03;100115.31;;;13.25;100.00
19676;BME280;39539;52.202;9.876;2022-09-09T02:39:29;100134.53;;;13.39;100.00
19676;BME280;39539;52.202;9.876;2022-09-09T02:41:54;100134.06;;;13.42;100.00
19676;BME280;39539;52.202;9.876;2022-09-09T02:44:20;100111.38;;;13.28;100.00
19676;BME280;39539;52.202;9.876;2022-09-09T02:47:10;100114.50;;;13.36;100.00
19676;BME280;39539;52.202;9.876;2022-09-09T02:55:20;100132.38;;;13.53;100.00
19676;BME280;39539;52.202;9.876;2022-09-09T02:57:49;100141.06;;;13.60;100.00
19676;BME280;39539;52.202;9.876;2022-09-09T03:00:22;100110.47;;;13.51;100.00
19676;BME280;39539;52.202;9.876;2022-09-09T03:02:49;100108.03;;;13.49;100.00
19676;BME280;39539;52.202;9.876;2022-09-09T03:05:15;100101.41;;;13.52;100.00
19676;BME280;39539;52.202;9.876;2022-09-09T03:07:40;100122.97;;;13.79;100.00
19676;BME280;39539;52.202;9.876;2022-09-09T03:10:07;100105.38;;;13.66;100.00
19676;BME280;39539;52.202;9.876;2022-09-09T03:12:33;100122.63;;;13.75;100.00
19676;BME280;39539;52.202;9.876;2022-09-09T03:14:58;100123.31;;;13.82;100.00
19676;BME280;39539;52.202;9.876;2022-09-09T03:17:24;100122.22;;;13.83;100.00
19676;BME280;39539;52.202;9.876;2022-09-09T03:19:49;100139.81;;;13.96;100.00
19676;BME280;39539;52.202;9.876;2022-09-09T03:22:17;100140.88;;;13.95;100.00
19676;BME280;39539;52.202;9.876;2022-09-09T03:24:43;100120.88;;;13.98;100.00
19676;BME280;39539;52.202;9.876;2022-09-09T03:27:09;100140.78;;;14.24;100.00
19676;BME280;39539;52.202;9.876;2022-09-09T03:29:35;100112.94;;;14.20;100.00
19676;BME280;39539;52.202;9.876;2022-09-09T03:32:00;100098.34;;;14.27;100.00
19676;BME280;39539;52.202;9.876;2022-09-09T03:34:26;100135.13;;;14.54;100.00
19676;BME280;39539;52.202;9.876;2022-09-09T03:36:51;100124.88;;;14.51;100.00
19676;BME280;39539;52.202;9.876;2022-09-09T03:39:17;100122.69;;;14.48;100.00
19676;BME280;39539;52.202;9.876;2022-09-09T03:41:42;100124.41;;;14.54;100.00
19676;BME280;39539;52.202;9.876;2022-09-09T03:44:12;100133.59;;;14.58;100.00
19676;BME280;39539;52.202;9.876;2022-09-09T03:46:37;100118.91;;;14.44;100.00
19676;BME280;39539;52.202;9.876;2022-09-09T03:49:04;100123.44;;;14.43;100.00
19676;BME280;39539;52.202;9.876;2022-09-09T03:51:30;100122.00;;;14.35;100.00
19676;BME280;39539;52.202;9.876;2022-09-09T03:53:55;100103.34;;;14.24;100.00
19676;BME280;39539;52.202;9.876;2022-09-09T03:56:23;100122.94;;;14.29;100.00
19676;BME280;39539;52.202;9.876;2022-09-09T03:58:49;100120.06;;;14.31;100.00
19676;BME280;39539;52.202;9.876;2022-09-09T04:01:14;100120.94;;;14.36;100.00
19676;BME280;39539;52.202;9.876;2022-09-09T04:03:43;100104.00;;;14.31;100.00
19676;BME280;39539;52.202;9.876;2022-09-09T04:06:10;100108.22;;;14.44;100.00
19676;BME280;39539;52.202;9.876;2022-09-09T04:08:40;100129.28;;;14.57;100.00
19676;BME280;39539;52.202;9.876;2022-09-09T04:11:06;100130.34;;;14.56;100.00
19676;BME280;39539;52.202;9.876;2022-09-09T04:13:38;100132.75;;;14.57;100.00
19676;BME280;39539;52.202;9.876;2022-09-09T04:16:05;100129.53;;;14.55;100.00
19676;BME280;39539;52.202;9.876;2022-09-09T04:18:30;100134.69;;;14.62;100.00
19676;BME280;39539;52.202;9.876;2022-09-09T04:20:57;100133.63;;;14.63;100.00
19676;BME280;39539;52.202;9.876;2022-09-09T04:23:24;100135.97;;;14.76;100.00
19676;BME280;39539;52.202;9.876;2022-09-09T04:25:54;100138.28;;;14.90;100.00
19676;BME280;39539;52.202;9.876;2022-09-09T04:28:22;100125.44;;;14.92;100.00
19676;BME280;39539;52.202;9.876;2022-09-09T04:30:48;100130.69;;;14.81;100.00
19676;BME280;39539;52.202;9.876;2022-09-09T04:33:14;100140.31;;;14.82;100.00
19676;BME280;39539;52.202;9.876;2022-09-09T04:35:45;100145.44;;;14.84;100.00
19676;BME280;39539;52.202;9.876;2022-09-09T04:38:12;100136.47;;;14.73;100.00
19676;BME280;39539;52.202;9.876;2022-09-09T04:40:37;100139.44;;;14.77;100.00
19676;BME280;39539;52.202;9.876;2022-09-09T04:43:05;100124.00;;;14.62;100.00
19676;BME280;39539;52.202;9.876;2022-09-09T04:45:31;100125.59;;;14.63;100.00
19676;BME280;39539;52.202;9.876;2022-09-09T04:47:57;100138.03;;;14.69;100.00
19676;BME280;39539;52.202;9.876;2022-09-09T04:50:26;100132.81;;;14.63;100.00
19676;BME280;39539;52.202;9.876;2022-09-09T04:52:53;100137.94;;;14.64;100.00
19676;BME280;39539;52.202;9.876;2022-09-09T04:55:18;100145.22;;;14.69;100.00
19676;BME280;39539;52.202;9.876;2022-09-09T04:57:44;100140.28;;;14.60;100.00
19676;BME280;39539;52.202;9.876;2022-09-09T05:00:11;100151.78;;;14.78;100.00
19676;BME280;39539;52.202;9.876;2022-09-09T05:02:51;100140.25;;;14.77;100.00
19676;BME280;39539;52.202;9.876;2022-09-09T05:05:19;100143.00;;;14.82;100.00
19676;BME280;39539;52.202;9.876;2022-09-09T05:08:01;100153.34;;;14.96;100.00
19676;BME280;39539;52.202;9.876;2022-09-09T05:10:28;100150.66;;;14.96;100.00
19676;BME280;39539;52.202;9.876;2022-09-09T05:13:06;100145.31;;;14.96;100.00
19676;BME280;39539;52.202;9.876;2022-09-09T05:15:31;100158.19;;;14.99;100.00
19676;BME280;39539;52.202;9.876;2022-09-09T05:18:17;100147.97;;;14.96;100.00
19676;BME280;39539;52.202;9.876;2022-09-09T05:20:42;100147.97;;;14.96;100.00
19676;BME280;39539;52.202;9.876;2022-09-09T05:23:13;100141.50;;;14.92;100.00
19676;BME280;39539;52.202;9.876;2022-09-09T05:25:39;100133.78;;;14.95;100.00
19676;BME280;39539;52.202;9.876;2022-09-09T05:28:06;100143.25;;;15.03;100.00
19676;BME280;39539;52.202;9.876;2022-09-09T05:30:39;100136.03;;;15.03;100.00
19676;BME280;39539;52.202;9.876;2022-09-09T05:33:04;100150.34;;;15.14;100.00
19676;BME280;39539;52.202;9.876;2022-09-09T05:35:32;100144.50;;;15.17;100.00
19676;BME280;39539;52.202;9.876;2022-09-09T05:38:02;100145.16;;;15.30;100.00
19676;BME280;39539;52.202;9.876;2022-09-09T05:40:28;100139.44;;;15.43;100.00
19676;BME280;39539;52.202;9.876;2022-09-09T05:42:53;100146.13;;;15.45;100.00
19676;BME280;39539;52.202;9.876;2022-09-09T05:45:20;100152.41;;;15.56;100.00
19676;BME280;39539;52.202;9.876;2022-09-09T05:47:51;100143.69;;;15.66;100.00
19676;BME280;39539;52.202;9.876;2022-09-09T05:50:21;100152.72;;;15.87;100.00
19676;BME280;39539;52.202;9.876;2022-09-09T05:52:46;100141.78;;;15.93;100.00
19676;BME280;39539;52.202;9.876;2022-09-09T05:55:14;100164.28;;;16.20;100.00
19676;BME280;39539;52.202;9.876;2022-09-09T05:57:40;100164.38;;;16.35;100.00
19676;BME280;39539;52.202;9.876;2022-09-09T06:00:06;100149.97;;;16.46;100.00
19676;BME280;39539;52.202;9.876;2022-09-09T06:02:34;100158.19;;;17.24;100.00
19676;BME280;39539;52.202;9.876;2022-09-09T06:05:02;100158.34;;;18.11;100.00
19676;BME280;39539;52.202;9.876;2022-09-09T06:07:28;100161.84;;;18.22;100.00
19676;BME280;39539;52.202;9.876;2022-09-09T06:09:54;100162.63;;;17.97;100.00
19676;BME280;39539;52.202;9.876;2022-09-09T06:12:21;100151.03;;;17.76;100.00
19676;BME280;39539;52.202;9.876;2022-09-09T06:14:49;100149.91;;;17.51;100.00
19676;BME280;39539;52.202;9.876;2022-09-09T06:17:18;100167.97;;;17.61;100.00
19676;BME280;39539;52.202;9.876;2022-09-09T06:19:45;100168.22;;;17.65;100.00
19676;BME280;39539;52.202;9.876;2022-09-09T06:22:10;100172.59;;;18.07;100.00
19676;BME280;39539;52.202;9.876;2022-09-09T06:24:39;100158.41;;;21.13;91.14
19676;BME280;39539;52.202;9.876;2022-09-09T06:27:04;100150.41;;;24.67;72.04
19676;BME280;39539;52.202;9.876;2022-09-09T06:29:33;100163.28;;;28.21;58.71
19676;BME280;39539;52.202;9.876;2022-09-09T06:31:59;100158.09;;;30.08;51.71
19676;BME280;39539;52.202;9.876;2022-09-09T06:34:33;100136.66;;;32.25;48.19
19676;BME280;39539;52.202;9.876;2022-09-09T06:36:59;100135.94;;;34.02;44.81
19676;BME280;39539;52.202;9.876;2022-09-09T06:39:24;100123.44;;;35.12;41.86
19676;BME280;39539;52.202;9.876;2022-09-09T06:41:51;100107.16;;;36.30;40.49
19676;BME280;39539;52.202;9.876;2022-09-09T06:44:18;100109.53;;;36.13;38.53
19676;BME280;39539;52.202;9.876;2022-09-09T06:46:45;100105.03;;;35.48;40.46
19676;BME280;39539;52.202;9.876;2022-09-09T06:49:13;100098.78;;;35.65;40.42
19676;BME280;39539;52.202;9.876;2022-09-09T06:51:39;100086.84;;;34.70;40.79
19676;BME280;39539;52.202;9.876;2022-09-09T06:54:08;100078.47;;;34.56;41.55
19676;BME280;39539;52.202;9.876;2022-09-09T06:56:38;100087.78;;;36.37;39.22
19676;BME280;39539;52.202;9.876;2022-09-09T06:59:06;100092.19;;;38.17;37.47
19676;BME280;39539;52.202;9.876;2022-09-09T07:01:40;100091.84;;;38.98;35.96
19676;BME280;39539;52.202;9.876;2022-09-09T07:04:06;100092.16;;;39.04;34.78
19676;BME280;39539;52.202;9.876;2022-09-09T07:06:35;100096.97;;;39.61;34.33
19676;BME280;39539;52.202;9.876;2022-09-09T07:09:04;100102.75;;;40.01;33.21
19676;BME280;39539;52.202;9.876;2022-09-09T07:11:34;100098.81;;;39.99;32.70
19676;BME280;39539;52.202;9.876;2022-09-09T07:14:02;100110.75;;;40.70;32.26
19676;BME280;39539;52.202;9.876;2022-09-09T07:16:28;100098.34;;;40.94;32.70
19676;BME280;39539;52.202;9.876;2022-09-09T07:18:54;100096.75;;;40.93;32.77
19676;BME280;39539;52.202;9.876;2022-09-09T07:21:25;100097.66;;;39.96;32.40
19676;BME280;39539;52.202;9.876;2022-09-09T07:23:51;100088.63;;;40.59;31.87
19676;BME280;39539;52.202;9.876;2022-09-09T07:26:19;100087.91;;;40.35;32.28
19676;BME280;39539;52.202;9.876;2022-09-09T07:28:46;100082.69;;;41.00;31.68
19676;BME280;39539;52.202;9.876;2022-09-09T07:31:20;100080.59;;;41.61;30.47
19676;BME280;39539;52.202;9.876;2022-09-09T07:33:46;100074.94;;;41.28;31.97
19676;BME280;39539;52.202;9.876;2022-09-09T07:36:18;100077.66;;;41.32;31.75
19676;BME280;39539;52.202;9.876;2022-09-09T07:38:50;100077.94;;;41.37;30.44
19676;BME280;39539;52.202;9.876;2022-09-09T07:41:20;100063.38;;;40.70;31.59
19676;BME280;39539;52.202;9.876;2022-09-09T07:43:48;100086.59;;;39.92;32.08
19676;BME280;39539;52.202;9.876;2022-09-09T07:46:17;100091.72;;;39.40;32.86
19676;BME280;39539;52.202;9.876;2022-09-09T07:48:52;100070.66;;;39.08;33.13
19676;BME280;39539;52.202;9.876;2022-09-09T07:51:29;100082.94;;;39.11;33.72
19676;BME280;39539;52.202;9.876;2022-09-09T07:54:03;100086.50;;;39.69;32.15
19676;BME280;39539;52.202;9.876;2022-09-09T07:56:30;100081.56;;;38.92;32.91
19676;BME280;39539;52.202;9.876;2022-09-09T07:58:57;100071.13;;;36.66;35.93
19676;BME280;39539;52.202;9.876;2022-09-09T08:01:36;100082.06;;;33.71;39.62
19676;BME280;39539;52.202;9.876;2022-09-09T08:04:06;100081.81;;;32.36;42.06
19676;BME280;39539;52.202;9.876;2022-09-09T08:06:37;100091.41;;;32.23;43.00
19676;BME280;39539;52.202;9.876;2022-09-09T08:09:04;100104.53;;;34.14;41.69
19676;BME280;39539;52.202;9.876;2022-09-09T08:11:30;100101.72;;;35.14;38.65
19676;BME280;39539;52.202;9.876;2022-09-09T08:13:57;100104.41;;;34.99;39.25
19676;BME280;39539;52.202;9.876;2022-09-09T08:16:25;100107.25;;;33.69;41.05
19676;BME280;39539;52.202;9.876;2022-09-09T08:18:52;100099.53;;;32.15;42.79
19676;BME280;39539;52.202;9.876;2022-09-09T08:21:24;100115.75;;;31.59;45.68
19676;BME280;39539;52.202;9.876;2022-09-09T08:23:51;100115.34;;;31.21;45.64
19676;BME280;39539;52.202;9.876;2022-09-09T08:26:24;100120.00;;;30.34;47.59
19676;BME280;39539;52.202;9.876;2022-09-09T08:28:51;100122.06;;;29.93;49.08
19676;BME280;39539;52.202;9.876;2022-09-09T08:33:50;100123.56;;;27.91;54.25
19676;BME280;39539;52.202;9.876;2022-09-09T08:36:21;100125.09;;;27.25;56.14
19676;BME280;39539;52.202;9.876;2022-09-09T08:38:52;100103.09;;;26.71;56.67
19676;BME280;39539;52.202;9.876;2022-09-09T08:52:21;100106.38;;;36.18;41.11
19676;BME280;39539;52.202;9.876;2022-09-09T08:54:47;100100.81;;;37.74;38.19
19676;BME280;39539;52.202;9.876;2022-09-09T08:57:32;100105.41;;;39.23;35.14
19676;BME280;39539;52.202;9.876;2022-09-09T08:59:58;100102.91;;;39.63;34.07
19676;BME280;39539;52.202;9.876;2022-09-09T09:02:32;100112.66;;;38.34;35.66
19676;BME280;39539;52.202;9.876;2022-09-09T09:10:56;100113.34;;;31.96;44.94
19676;BME280;39539;52.202;9.876;2022-09-09T09:16:34;100133.19;;;30.01;48.31
19676;BME280;39539;52.202;9.876;2022-09-09T09:19:03;100133.75;;;28.73;51.33
19676;BME280;39539;52.202;9.876;2022-09-09T09:21:34;100137.09;;;28.20;52.92
19676;BME280;39539;52.202;9.876;2022-09-09T09:24:10;100122.47;;;28.86;53.00
19676;BME280;39539;52.202;9.876;2022-09-09T09:26:42;100122.84;;;29.78;51.46
19676;BME280;39539;52.202;9.876;2022-09-09T09:29:14;100138.47;;;31.01;48.81
19676;BME280;39539;52.202;9.876;2022-09-09T09:31:52;100117.72;;;31.03;48.65
19676;BME280;39539;52.202;9.876;2022-09-09T09:34:22;100119.13;;;29.18;51.41
19676;BME280;39539;52.202;9.876;2022-09-09T09:36:54;100123.03;;;28.68;52.33
19676;BME280;39539;52.202;9.876;2022-09-09T09:39:31;100124.16;;;28.79;53.05
19676;BME280;39539;52.202;9.876;2022-09-09T09:42:13;100132.09;;;27.35;56.13
19676;BME280;39539;52.202;9.876;2022-09-09T09:44:41;100123.78;;;26.72;58.31
19676;BME280;39539;52.202;9.876;2022-09-09T09:47:19;100130.22;;;26.12;61.69
19676;BME280;39539;52.202;9.876;2022-09-09T09:49:55;100114.75;;;25.69;62.46
19676;BME280;39539;52.202;9.876;2022-09-09T09:52:28;100098.66;;;24.89;66.95
19676;BME280;39539;52.202;9.876;2022-09-09T09:54:56;100121.81;;;24.78;67.62
19676;BME280;39539;52.202;9.876;2022-09-09T09:57:26;100106.75;;;25.20;65.04
19676;BME280;39539;52.202;9.876;2022-09-09T10:00:17;100115.69;;;25.56;64.58
19676;BME280;39539;52.202;9.876;2022-09-09T10:02:45;100098.84;;;25.10;64.07
19676;BME280;39539;52.202;9.876;2022-09-09T10:07:39;100115.50;;;24.51;64.98
19676;BME280;39539;52.202;9.876;2022-09-09T10:10:05;100114.34;;;24.12;68.47
19676;BME280;39539;52.202;9.876;2022-09-09T10:12:40;100109.16;;;23.80;71.26
19676;BME280;39539;52.202;9.876;2022-09-09T10:18:22;100108.13;;;24.43;70.49
19676;BME280;39539;52.202;9.876;2022-09-09T10:20:56;100117.31;;;24.64;69.76
19676;BME280;39539;52.202;9.876;2022-09-09T10:26:50;100112.53;;;24.79;70.26
19676;BME280;39539;52.202;9.876;2022-09-09T10:32:11;100099.22;;;25.61;66.66
19676;BME280;39539;52.202;9.876;2022-09-09T10:34:53;100105.16;;;25.54;62.78
19676;BME280;39539;52.202;9.876;2022-09-09T10:37:35;100101.31;;;25.29;63.42
19676;BME280;39539;52.202;9.876;2022-09-09T10:46:23;100104.25;;;26.91;62.14
19676;BME280;39539;52.202;9.876;2022-09-09T10:49:46;100093.31;;;26.32;59.80
19676;BME280;39539;52.202;9.876;2022-09-09T10:55:20;100086.53;;;25.82;64.33
19676;BME280;39539;52.202;9.876;2022-09-09T10:57:52;100091.84;;;25.44;63.96
19676;BME280;39539;52.202;9.876;2022-09-09T11:00:40;100089.13;;;25.18;61.85
19676;BME280;39539;52.202;9.876;2022-09-09T11:03:33;100076.09;;;24.80;64.77
19676;BME280;39539;52.202;9.876;2022-09-09T11:06:06;100076.97;;;24.49;69.39
19676;BME280;39539;52.202;9.876;2022-09-09T11:08:38;100086.16;;;24.39;69.20
19676;BME280;39539;52.202;9.876;2022-09-09T11:11:36;100087.28;;;23.76;63.80
19676;BME280;39539;52.202;9.876;2022-09-09T11:16:42;100106.56;;;23.16;68.36
19676;BME280;39539;52.202;9.876;2022-09-09T11:19:24;100103.69;;;22.71;70.71
19676;BME280;39539;52.202;9.876;2022-09-09T11:21:53;100115.59;;;22.56;73.05
19676;BME280;39539;52.202;9.876;2022-09-09T11:24:43;100125.13;;;22.67;72.73
19676;BME280;39539;52.202;9.876;2022-09-09T11:27:21;100121.44;;;22.77;73.04
19676;BME280;39539;52.202;9.876;2022-09-09T11:29:59;100138.91;;;22.84;73.88
19676;BME280;39539;52.202;9.876;2022-09-09T11:33:10;100130.03;;;22.93;71.61
19676;BME280;39539;52.202;9.876;2022-09-09T11:38:48;100139.28;;;22.64;73.82
19676;BME280;39539;52.202;9.876;2022-09-09T11:41:17;100160.47;;;22.62;75.12
19676;BME280;39539;52.202;9.876;2022-09-09T11:43:53;100150.38;;;22.21;77.51
19676;BME280;39539;52.202;9.876;2022-09-09T11:46:22;100168.88;;;22.14;80.00
19676;BME280;39539;52.202;9.876;2022-09-09T11:49:01;100157.88;;;21.91;81.17
19676;BME280;39539;52.202;9.876;2022-09-09T11:51:30;100149.53;;;21.88;80.36
19676;BME280;39539;52.202;9.876;2022-09-09T11:54:00;100160.28;;;21.93;79.94
19676;BME280;39539;52.202;9.876;2022-09-09T11:56:29;100170.97;;;21.84;79.08
19676;BME280;39539;52.202;9.876;2022-09-09T11:59:17;100153.13;;;21.64;80.78
19676;BME280;39539;52.202;9.876;2022-09-09T12:01:45;100163.75;;;21.61;81.57
19676;BME280;39539;52.202;9.876;2022-09-09T12:04:21;100160.09;;;21.51;81.83
19676;BME280;39539;52.202;9.876;2022-09-09T12:09:44;100166.75;;;21.40;80.83
19676;BME280;39539;52.202;9.876;2022-09-09T12:14:56;100176.28;;;21.33;81.01
19676;BME280;39539;52.202;9.876;2022-09-09T12:17:24;100155.72;;;21.13;81.78
19676;BME280;39539;52.202;9.876;2022-09-09T12:23:03;100185.56;;;21.26;82.38
19676;BME280;39539;52.202;9.876;2022-09-09T12:33:48;100163.31;;;20.62;87.35
19676;BME280;39539;52.202;9.876;2022-09-09T12:36:21;100180.56;;;20.67;86.46
19676;BME280;39539;52.202;9.876;2022-09-09T12:38:47;100193.59;;;20.59;87.75
19676;BME280;39539;52.202;9.876;2022-09-09T12:41:23;100184.38;;;20.60;87.15
19676;BME280;39539;52.202;9.876;2022-09-09T12:43:51;100181.47;;;20.52;88.50
19676;BME280;39539;52.202;9.876;2022-09-09T12:46:33;100186.66;;;20.48;89.65
19676;BME280;39539;52.202;9.876;2022-09-09T12:49:02;100184.56;;;20.40;90.69
19676;BME280;39539;52.202;9.876;2022-09-09T12:51:30;100192.13;;;20.38;89.73
19676;BME280;39539;52.202;9.876;2022-09-09T12:53:57;100201.38;;;20.32;91.86
19676;BME280;39539;52.202;9.876;2022-09-09T12:56:31;100213.25;;;20.31;91.36
19676;BME280;39539;52.202;9.876;2022-09-09T12:58:58;100214.06;;;20.31;92.13
19676;BME280;39539;52.202;9.876;2022-09-09T13:01:26;100206.81;;;20.27;92.79
19676;BME280;39539;52.202;9.876;2022-09-09T13:03:52;100217.94;;;20.49;93.64
19676;BME280;39539;52.202;9.876;2022-09-09T13:06:29;100217.69;;;20.51;90.46
19676;BME280;39539;52.202;9.876;2022-09-09T13:08:58;100211.91;;;20.62;89.89
19676;BME280;39539;52.202;9.876;2022-09-09T13:11:36;100220.34;;;20.85;91.00
19676;BME280;39539;52.202;9.876;2022-09-09T13:14:04;100216.50;;;20.91;89.69
19676;BME280;39539;52.202;9.876;2022-09-09T13:16:35;100221.38;;;21.13;85.58
19676;BME280;39539;52.202;9.876;2022-09-09T13:19:14;100190.84;;;21.13;81.17
19676;BME280;39539;52.202;9.876;2022-09-09T13:21:41;100190.84;;;21.13;78.87
19676;BME280;39539;52.202;9.876;2022-09-09T13:26:58;100180.41;;;21.25;79.38
19676;BME280;39539;52.202;9.876;2022-09-09T13:29:24;100171.06;;;21.41;79.30
19676;BME280;39539;52.202;9.876;2022-09-09T13:31:51;100187.44;;;21.69;78.01
19676;BME280;39539;52.202;9.876;2022-09-09T13:34:30;100179.28;;;21.88;74.40
19676;BME280;39539;52.202;9.876;2022-09-09T13:37:01;100151.09;;;22.08;75.93
19676;BME280;39539;52.202;9.876;2022-09-09T13:39:35;100147.19;;;22.33;75.13
19676;BME280;39539;52.202;9.876;2022-09-09T13:42:02;100142.69;;;22.70;72.86
19676;BME280;39539;52.202;9.876;2022-09-09T13:44:38;100121.38;;;22.96;67.31
19676;BME280;39539;52.202;9.876;2022-09-09T13:47:18;100116.28;;;23.30;67.60
19676;BME280;39539;52.202;9.876;2022-09-09T13:49:45;100121.19;;;23.28;66.43
19676;BME280;39539;52.202;9.876;2022-09-09T13:52:18;100114.44;;;23.40;66.67
19676;BME280;39539;52.202;9.876;2022-09-09T13:54:48;100102.59;;;23.36;66.09
19676;BME280;39539;52.202;9.876;2022-09-09T13:57:20;100113.31;;;23.41;65.55
19676;BME280;39539;52.202;9.876;2022-09-09T13:59:46;100086.75;;;23.15;65.01
19676;BME280;39539;52.202;9.876;2022-09-09T14:02:13;100099.44;;;23.06;68.28
19676;BME280;39539;52.202;9.876;2022-09-09T14:04:38;100085.28;;;22.81;70.99
19676;BME280;39539;52.202;9.876;2022-09-09T14:07:10;100085.00;;;22.55;71.49
19676;BME280;39539;52.202;9.876;2022-09-09T14:09:37;100079.78;;;22.31;73.67
19676;BME280;39539;52.202;9.876;2022-09-09T14:12:02;100063.91;;;22.11;75.22
19676;BME280;39539;52.202;9.876;2022-09-09T14:14:28;100070.72;;;22.22;71.19
19676;BME280;39539;52.202;9.876;2022-09-09T14:16:53;100084.59;;;22.21;77.66
19676;BME280;39539;52.202;9.876;2022-09-09T14:19:18;100091.63;;;22.35;79.63
19676;BME280;39539;52.202;9.876;2022-09-09T14:21:45;100105.69;;;22.65;81.06
19676;BME280;39539;52.202;9.876;2022-09-09T14:24:10;100104.47;;;22.85;74.86
19676;BME280;39539;52.202;9.876;2022-09-09T14:26:36;100080.69;;;22.96;73.03
19676;BME280;39539;52.202;9.876;2022-09-09T14:29:02;100084.66;;;23.12;73.54
19676;BME280;39539;52.202;9.876;2022-09-09T14:31:27;100091.00;;;23.07;73.71
19676;BME280;39539;52.202;9.876;2022-09-09T14:33:52;100084.09;;;22.60;75.91
19676;BME280;39539;52.202;9.876;2022-09-09T14:36:18;100071.97;;;22.44;76.46
19676;BME280;39539;52.202;9.876;2022-09-09T14:38:44;100074.72;;;22.11;80.04
19676;BME280;39539;52.202;9.876;2022-09-09T14:41:14;100084.94;;;22.00;82.45
19676;BME280;39539;52.202;9.876;2022-09-09T14:43:42;100092.50;;;21.84;84.32
19676;BME280;39539;52.202;9.876;2022-09-09T14:46:11;100077.84;;;21.85;81.94
19676;BME280;39539;52.202;9.876;2022-09-09T14:48:38;100107.06;;;22.35;79.95
19676;BME280;39539;52.202;9.876;2022-09-09T14:53:35;100089.94;;;22.53;77.54
19676;BME280;39539;52.202;9.876;2022-09-09T14:56:13;100072.16;;;22.47;74.79
19676;BME280;39539;52.202;9.876;2022-09-09T14:58:40;100085.50;;;22.57;73.67
19676;BME280;39539;52.202;9.876;2022-09-09T15:01:11;100084.00;;;22.65;73.74
19676;BME280;39539;52.202;9.876;2022-09-09T15:03:47;100090.13;;;22.57;75.02
19676;BME280;39539;52.202;9.876;2022-09-09T15:06:14;100080.41;;;22.42;67.92
19676;BME280;39539;52.202;9.876;2022-09-09T15:08:41;100082.19;;;22.47;68.89
19676;BME280;39539;52.202;9.876;2022-09-09T15:11:08;100076.53;;;22.15;65.74
19676;BME280;39539;52.202;9.876;2022-09-09T15:13:34;100070.91;;;22.12;66.18
19676;BME280;39539;52.202;9.876;2022-09-09T15:16:07;100073.53;;;22.17;65.01